Hovedside
METAR-TAF:

METAR-TAF

Lufthavner :

Cairns, Australia

breddegrad: 16-53S, lengdegrad: 145-45E, høyde over havet: 3 m

Gjeldene værobservasjon

Denne rapporten ble laget for 33 minutter siden, klokken 15:00 UTC
Vind 3 kt fra skiftende retning
Temperatur 23°C
Luftfuktighet 78%
Trykk 1010 hPa
Sikt 10 km eller mer
Spredte skyer i en høyde av 3000 ft

METAR: YBCS 141500Z AUTO 17003KT 9999 // NCD 23/19 Q1010 FM1510 VRB03KT 9999 SCT030

Tid: 01:33 (15:33 UTC)

Varsel

Denne rapporten ble laget for 4 timer og 14 minutter siden, klokken 11:19 UTC
Varsel gyldig fra 14. klokken 12 UTC til 15. klokken 12 UTC
Vind 3 kt fra skiftende retning
Sikt 10 km eller mer
Spredte skyer i en høyde av 2500 ft
Fra 14. klokken 2300 UTC
Vind 10 kt fra Nordøst
Sikt 10 km eller mer
Få skyer i en høyde av 3000 ft
Fra 15. klokken 0900 UTC
Vind 5 kt fra Sør
Sikt 10 km eller mer
Spredte skyer i en høyde av 2500 ft

TAF: YBCS 141119Z 1412/1512 VRB03KT 9999 SCT025 FM142300 05010KT 9999 FEW030 FM150900 17005KT 9999 SCT025

Værobservasjoner og værvarsel for over 4000 flyplasser (METAR- og TAF-rapporter).

Tilgjengelige stasjoner er representert av de røde og gule prikkene på kartet.

Hold musepekeren over prikken for å se navnet på stasjonen.

Klikk så for å se værobservasjoner og -varsler.

For å forandre kartet kan du klikke på den grønne knappen med svart kryss for å zoome inn, på den grønne knappen med strek for å zoome ut, eller på de grønne pilene for å se tilstøtende kart.


METAR-TAF: